createdAt,value
2019-03-01T00:01:54.023Z,52.60
2019-03-01T00:05:21.184Z,56.60
2019-03-01T00:08:16.072Z,56.93
2019-03-01T00:11:43.855Z,57.63
2019-03-01T00:15:03.065Z,63.97
2019-03-01T00:18:38.785Z,64.70
2019-03-01T00:22:16.963Z,63.30
2019-03-01T00:25:45.960Z,59.53
2019-03-01T00:29:16.609Z,71.17
2019-03-01T00:32:30.998Z,64.90
2019-03-01T00:36:12.650Z,70.10
2019-03-01T00:39:25.951Z,70.27
2019-03-01T00:42:54.883Z,68.67
2019-03-01T00:45:27.701Z,62.93
2019-03-01T00:48:00.649Z,59.03
2019-03-01T00:50:33.839Z,59.93
2019-03-01T00:53:07.338Z,48.97
2019-03-01T00:55:45.909Z,52.40
2019-03-01T00:58:18.909Z,53.53
2019-03-01T01:00:53.103Z,55.40
2019-03-01T01:03:26.059Z,52.60
2019-03-01T01:05:58.889Z,54.00
2019-03-01T01:08:31.857Z,52.73
2019-03-01T01:13:55.551Z,60.83
2019-03-01T01:16:28.421Z,53.57
2019-03-01T01:19:01.297Z,69.47
2019-03-01T01:21:34.506Z,70.73
2019-03-01T01:24:09.110Z,65.00
2019-03-01T01:26:42.486Z,66.83
2019-03-01T01:29:15.406Z,73.40
2019-03-01T01:31:48.410Z,67.97
2019-03-01T01:34:21.391Z,70.03
2019-03-01T01:36:54.426Z,73.30
2019-03-01T01:39:28.880Z,74.63
2019-03-01T01:42:01.983Z,68.23
2019-03-01T01:44:34.872Z,67.83
2019-03-01T01:47:07.690Z,68.53
2019-03-01T01:49:40.641Z,68.97
2019-03-01T01:52:14.734Z,62.80
2019-03-01T01:54:47.830Z,67.87
2019-03-01T01:57:20.834Z,73.17
2019-03-01T01:59:53.761Z,64.27
2019-03-01T02:02:26.749Z,70.67
2019-03-01T02:04:59.705Z,66.70
2019-03-01T02:07:34.259Z,63.17
2019-03-01T02:10:08.737Z,74.40
2019-03-01T02:12:41.753Z,62.83
2019-03-01T02:15:15.114Z,62.57
2019-03-01T02:17:49.142Z,55.13
2019-03-01T02:20:22.067Z,61.83
2019-03-01T02:22:54.880Z,58.23
2019-03-01T02:25:27.881Z,52.23
2019-03-01T02:28:00.743Z,57.30
2019-03-01T02:30:34.608Z,64.70
2019-03-01T02:33:07.669Z,53.60
2019-03-01T02:35:40.679Z,52.30
2019-03-01T02:38:13.631Z,51.53
2019-03-01T02:40:46.534Z,54.60
2019-03-01T02:43:19.387Z,52.67
2019-03-01T02:45:52.506Z,50.60
2019-03-01T02:48:25.600Z,49.20
2019-03-01T02:50:58.487Z,52.07
2019-03-01T02:53:31.295Z,52.63
2019-03-01T02:56:04.270Z,52.00
2019-03-01T02:58:37.270Z,51.70
2019-03-01T03:01:10.184Z,49.83
2019-03-01T03:03:43.078Z,50.23
2019-03-01T03:06:37.719Z,49.33
2019-03-01T03:09:11.770Z,45.00
2019-03-01T03:11:44.874Z,49.03
2019-03-01T03:14:17.894Z,49.13
2019-03-01T03:16:50.877Z,47.90
2019-03-01T03:19:23.749Z,50.57
2019-03-01T03:21:56.608Z,55.43
2019-03-01T03:24:29.603Z,50.47
2019-03-01T03:27:02.565Z,51.83
2019-03-01T03:29:36.714Z,60.13
2019-03-01T03:32:11.098Z,48.77
2019-03-01T03:34:44.138Z,52.07
2019-03-01T03:37:16.935Z,46.60
2019-03-01T03:39:49.809Z,50.73
2019-03-01T03:42:22.860Z,50.43
2019-03-01T03:44:55.856Z,47.47
2019-03-01T03:47:28.943Z,56.40
2019-03-01T03:50:02.076Z,47.03
2019-03-01T03:52:39.367Z,49.33
2019-03-01T03:55:14.503Z,58.30
2019-03-01T03:57:48.159Z,52.03
2019-03-01T04:00:21.501Z,44.00
2019-03-01T04:02:54.610Z,66.97
2019-03-01T04:05:27.580Z,48.03
2019-03-01T04:08:00.520Z,56.37
2019-03-01T04:10:33.396Z,55.17
2019-03-01T04:13:06.433Z,54.27
2019-03-01T04:15:39.509Z,57.90
2019-03-01T04:18:12.424Z,73.33
2019-03-01T04:20:45.460Z,66.60
2019-03-01T04:23:18.533Z,68.40
2019-03-01T04:25:51.366Z,59.03
2019-03-01T04:28:24.292Z,61.93
2019-03-01T04:30:57.617Z,63.60
2019-03-01T04:33:30.780Z,63.00
2019-03-01T04:36:03.822Z,57.43
2019-03-01T04:38:37.012Z,65.73
2019-03-01T04:41:09.948Z,71.63
2019-03-01T04:43:43.955Z,61.23
2019-03-01T04:46:16.791Z,71.73
2019-03-01T04:48:49.748Z,73.27
2019-03-01T04:51:22.639Z,69.23
2019-03-01T04:53:55.511Z,66.17
2019-03-01T04:56:28.891Z,68.57
2019-03-01T04:59:01.793Z,79.33
2019-03-01T05:01:36.983Z,71.40
2019-03-01T05:04:12.190Z,69.13
2019-03-01T05:06:45.294Z,64.03
2019-03-01T05:09:18.615Z,69.87
2019-03-01T05:11:51.667Z,70.40
2019-03-01T05:14:24.587Z,67.70
2019-03-01T05:16:57.686Z,65.13
2019-03-01T05:19:31.564Z,62.37
2019-03-01T05:22:04.639Z,68.00
2019-03-01T05:24:37.764Z,58.90
2019-03-01T05:27:12.707Z,59.67
2019-03-01T05:29:50.418Z,73.10
2019-03-01T05:32:28.667Z,64.07
2019-03-01T05:35:13.196Z,66.63
2019-03-01T05:37:53.696Z,56.27
2019-03-01T05:40:29.123Z,54.83
2019-03-01T05:43:02.097Z,63.20
2019-03-01T05:45:49.756Z,60.67
2019-03-01T05:48:25.014Z,54.40
2019-03-01T05:50:58.433Z,51.27
2019-03-01T05:53:38.930Z,60.30
2019-03-01T05:56:11.851Z,56.20
2019-03-01T05:58:50.496Z,61.10
2019-03-01T06:02:07.423Z,55.67
2019-03-01T06:04:51.665Z,59.80
2019-03-01T06:08:21.120Z,59.20
2019-03-01T06:11:33.170Z,57.67
2019-03-01T06:15:12.298Z,65.03
2019-03-01T06:18:49.542Z,59.47
2019-03-01T06:21:50.797Z,50.67
2019-03-01T06:25:35.984Z,48.43
2019-03-01T06:29:02.628Z,65.07
2019-03-01T06:33:00.758Z,48.20
2019-03-01T06:36:19.486Z,48.03
2019-03-01T06:40:15.857Z,58.77
2019-03-01T06:43:39.198Z,62.27
2019-03-01T06:47:17.911Z,52.80
2019-03-01T06:50:04.601Z,57.57
2019-03-01T06:52:37.311Z,61.63
2019-03-01T06:55:31.556Z,68.07
2019-03-01T06:58:11.516Z,68.13
2019-03-01T07:00:50.473Z,72.47
2019-03-01T07:03:25.845Z,60.73
2019-03-01T07:06:03.737Z,65.87
2019-03-01T07:09:07.064Z,67.53
2019-03-01T07:12:10.825Z,62.20
2019-03-01T07:15:08.741Z,57.57
2019-03-01T07:18:16.388Z,53.97
2019-03-01T07:21:01.759Z,49.93
2019-03-01T07:25:06.458Z,57.97
2019-03-01T07:27:54.752Z,52.07
2019-03-01T07:35:03.486Z,52.07
2019-03-01T07:37:42.294Z,56.93
2019-03-01T07:40:18.990Z,48.70
2019-03-01T07:42:54.361Z,52.23
2019-03-01T07:45:32.002Z,54.10
2019-03-01T07:48:05.038Z,54.60
2019-03-01T07:50:38.286Z,55.80
2019-03-01T07:53:11.395Z,49.07
2019-03-01T07:55:46.536Z,48.40
2019-03-01T07:58:21.559Z,50.03
2019-03-01T08:00:54.792Z,47.30
2019-03-01T08:03:28.015Z,45.60
2019-03-01T08:06:05.591Z,51.30
2019-03-01T08:08:47.457Z,43.70
2019-03-01T08:11:20.564Z,50.87
2019-03-01T08:14:04.871Z,57.50
2019-03-01T08:16:39.400Z,46.17
2019-03-01T08:19:17.065Z,48.57
2019-03-01T08:21:55.817Z,46.53
2019-03-01T08:24:29.128Z,41.37
2019-03-01T08:27:06.492Z,48.83
2019-03-01T08:29:40.601Z,42.97
2019-03-01T08:32:30.635Z,51.20
2019-03-01T08:35:20.428Z,52.30
2019-03-01T08:38:01.400Z,57.37
2019-03-01T08:40:36.046Z,48.70
2019-03-01T08:43:29.685Z,45.87
2019-03-01T08:46:09.577Z,51.20
2019-03-01T08:48:41.085Z,46.27
2019-03-01T08:51:22.759Z,51.07
2019-03-01T08:54:16.808Z,45.63
2019-03-01T08:56:52.872Z,43.40
2019-03-01T08:59:27.589Z,49.07
2019-03-01T09:02:11.842Z,48.10
2019-03-01T09:04:51.119Z,49.00
2019-03-01T09:07:30.228Z,49.73
2019-03-01T09:10:08.684Z,55.00
2019-03-01T09:12:41.917Z,54.53
2019-03-01T09:15:36.728Z,61.07
2019-03-01T09:18:11.496Z,48.27
2019-03-01T09:20:44.317Z,53.77
2019-03-01T09:23:27.274Z,54.53
2019-03-01T09:26:11.140Z,67.97
2019-03-01T09:28:46.951Z,64.07
2019-03-01T09:31:22.603Z,49.27
2019-03-01T09:34:06.144Z,49.53
2019-03-01T09:36:51.475Z,49.70
2019-03-01T09:39:33.901Z,52.03
2019-03-01T09:42:21.043Z,45.37
2019-03-01T09:45:06.890Z,51.87
2019-03-01T09:50:31.656Z,41.97
2019-03-01T09:53:04.792Z,48.70
2019-03-01T09:55:39.287Z,38.83
2019-03-01T09:58:17.269Z,39.13
2019-03-01T10:01:13.794Z,37.47
2019-03-01T10:03:56.169Z,37.47
2019-03-01T10:06:37.791Z,35.43
2019-03-01T10:09:25.713Z,38.60
2019-03-01T10:12:20.217Z,37.13
2019-03-01T10:15:21.881Z,43.27
2019-03-01T10:18:06.941Z,49.13
2019-03-01T10:21:06.938Z,39.93
2019-03-01T10:24:50.999Z,30.57
2019-03-01T10:27:59.686Z,41.57
2019-03-01T10:30:59.722Z,37.10
2019-03-01T10:33:55.168Z,38.97
2019-03-01T10:36:34.664Z,31.50
2019-03-01T10:39:59.285Z,29.53
2019-03-01T10:42:48.071Z,37.93
2019-03-01T10:45:40.350Z,34.50
2019-03-01T10:48:17.731Z,30.33
2019-03-01T10:51:07.830Z,33.13
2019-03-01T10:53:47.783Z,31.53
2019-03-01T10:56:23.956Z,31.40
2019-03-01T10:59:05.772Z,33.37
2019-03-01T11:01:55.175Z,28.83
2019-03-01T11:04:48.635Z,33.17
2019-03-01T11:07:31.745Z,32.57
2019-03-01T11:13:38.897Z,31.30
2019-03-01T11:16:19.904Z,29.63
2019-03-01T11:19:00.025Z,30.03
2019-03-01T11:21:36.673Z,26.40
2019-03-01T11:24:29.662Z,27.27
2019-03-01T11:27:27.354Z,31.33
2019-03-01T11:30:11.906Z,30.67
2019-03-01T11:32:47.235Z,29.20
2019-03-01T11:35:20.639Z,27.13
2019-03-01T11:38:00.127Z,28.60
2019-03-01T11:40:38.838Z,32.33
2019-03-01T11:43:23.627Z,26.50
2019-03-01T11:46:00.533Z,29.00
2019-03-01T11:48:44.717Z,29.63
2019-03-01T11:51:24.853Z,34.43
2019-03-01T11:54:07.405Z,27.50
2019-03-01T11:56:53.608Z,30.43
2019-03-01T11:59:29.477Z,32.83
2019-03-01T12:02:30.996Z,28.23
2019-03-01T12:05:30.526Z,27.07
2019-03-01T12:08:17.577Z,33.10
2019-03-01T12:11:12.022Z,33.93
2019-03-01T12:13:51.628Z,26.10
2019-03-01T12:16:26.507Z,27.50
2019-03-01T12:19:04.627Z,30.97
2019-03-01T12:21:41.659Z,27.93
2019-03-01T12:24:14.872Z,30.40
2019-03-01T12:26:49.678Z,32.80
2019-03-01T12:29:30.845Z,35.53
2019-03-01T12:32:07.742Z,40.47
2019-03-01T12:34:42.510Z,36.43
2019-03-01T12:37:17.630Z,29.13
2019-03-01T12:40:07.985Z,31.20
2019-03-01T12:42:56.508Z,30.43
2019-03-01T12:45:44.336Z,30.43
2019-03-01T12:48:18.753Z,33.57
2019-03-01T12:50:55.939Z,36.27
2019-03-01T12:53:34.980Z,31.07
2019-03-01T12:56:21.386Z,33.73
2019-03-01T12:59:04.999Z,42.67
2019-03-01T13:01:38.828Z,40.90
2019-03-01T13:04:32.103Z,35.43
2019-03-01T13:07:20.188Z,37.03
2019-03-01T13:09:58.876Z,45.43
2019-03-01T13:12:36.224Z,47.73
2019-03-01T13:15:21.480Z,35.40
2019-03-01T13:18:32.225Z,43.93
2019-03-01T13:21:14.654Z,35.00
2019-03-01T13:23:51.253Z,36.97
2019-03-01T13:27:17.529Z,43.10
2019-03-01T13:29:58.762Z,31.23
2019-03-01T13:32:36.077Z,37.33
2019-03-01T13:35:16.366Z,32.10
2019-03-01T13:37:57.755Z,39.07
2019-03-01T13:40:38.399Z,42.93
2019-03-01T13:43:13.097Z,39.87
2019-03-01T13:45:52.719Z,36.00
2019-03-01T13:48:27.284Z,42.47
2019-03-01T13:51:01.512Z,44.70
2019-03-01T13:53:35.004Z,41.50
2019-03-01T13:56:08.187Z,46.33
2019-03-01T13:58:45.469Z,40.90
2019-03-01T14:01:27.042Z,38.77
2019-03-01T14:04:03.250Z,39.17
2019-03-01T14:06:46.549Z,47.63
2019-03-01T14:09:27.091Z,35.87
2019-03-01T14:12:04.219Z,43.63
2019-03-01T14:14:45.254Z,39.53
2019-03-01T14:18:00.670Z,39.40
2019-03-01T14:20:36.085Z,52.90
2019-03-01T14:23:43.069Z,47.90
2019-03-01T14:26:26.349Z,41.03
2019-03-01T14:29:16.947Z,43.57
2019-03-01T14:31:56.639Z,40.57
2019-03-01T14:34:29.883Z,44.27
2019-03-01T14:37:03.505Z,43.53
2019-03-01T14:39:38.144Z,45.77
2019-03-01T14:42:18.847Z,52.80
2019-03-01T14:44:51.834Z,57.17
2019-03-01T14:47:29.126Z,39.63
2019-03-01T14:50:00.698Z,44.27
2019-03-01T14:52:33.538Z,46.30
2019-03-01T14:55:07.588Z,49.47
2019-03-01T14:57:47.082Z,48.10
2019-03-01T15:01:00.155Z,44.90
2019-03-01T15:03:40.633Z,48.10
2019-03-01T15:06:15.468Z,50.50
2019-03-01T15:08:48.250Z,50.53
2019-03-01T15:11:23.668Z,52.57
2019-03-01T15:13:57.683Z,57.30
2019-03-01T15:16:30.636Z,61.50
2019-03-01T15:19:04.789Z,62.07
2019-03-01T15:21:38.429Z,62.53
2019-03-01T15:24:12.526Z,68.87
2019-03-01T15:26:46.274Z,78.00
2019-03-01T15:29:19.200Z,78.40
2019-03-01T15:31:55.065Z,76.63
2019-03-01T15:34:26.922Z,67.47
2019-03-01T15:36:59.863Z,71.03
2019-03-01T15:39:33.022Z,77.57
2019-03-01T15:42:05.969Z,70.53
2019-03-01T15:44:38.997Z,70.90
2019-03-01T15:47:12.144Z,68.90
2019-03-01T15:49:48.027Z,70.57
2019-03-01T15:52:21.161Z,73.70
2019-03-01T15:54:54.305Z,60.03
2019-03-01T15:57:27.546Z,67.40
2019-03-01T16:00:03.530Z,69.93
2019-03-01T16:02:40.286Z,78.67
2019-03-01T16:05:21.688Z,75.53
2019-03-01T16:07:57.208Z,76.93
2019-03-01T16:10:32.917Z,82.53
2019-03-01T16:13:08.413Z,73.10
2019-03-01T16:15:41.271Z,135.07
2019-03-01T16:18:17.004Z,111.27
2019-03-01T16:20:57.354Z,117.97
2019-03-01T16:23:32.593Z,82.07
2019-03-01T16:26:05.993Z,77.53
2019-03-01T16:28:40.410Z,85.83
2019-03-01T16:31:18.013Z,100.73
2019-03-01T16:33:53.558Z,182.30
2019-03-01T16:36:30.733Z,162.77
2019-03-01T16:39:08.567Z,136.20
2019-03-01T16:41:55.369Z,128.23
2019-03-01T16:44:41.690Z,146.13
2019-03-01T16:47:23.310Z,174.37
2019-03-01T16:49:58.946Z,167.30
2019-03-01T16:52:35.538Z,148.67
2019-03-01T16:55:24.452Z,140.93
2019-03-01T16:58:20.159Z,143.70
2019-03-01T17:01:19.189Z,133.97
2019-03-01T17:04:04.192Z,131.03
2019-03-01T17:06:45.496Z,156.10
2019-03-01T17:09:19.013Z,171.83
2019-03-01T17:11:52.255Z,157.60
2019-03-01T17:14:25.313Z,170.53
2019-03-01T17:17:16.857Z,208.57
2019-03-01T17:19:50.189Z,324.87
2019-03-01T17:22:28.057Z,329.40
2019-03-01T17:25:01.298Z,351.73
2019-03-01T17:27:36.730Z,309.93
2019-03-01T17:30:18.151Z,281.43
2019-03-01T17:33:12.808Z,262.07
2019-03-01T17:35:49.271Z,281.80
2019-03-01T17:38:22.925Z,320.47
2019-03-01T17:40:56.507Z,368.17
2019-03-01T17:43:34.235Z,346.70
2019-03-01T17:46:09.707Z,392.27
2019-03-01T17:48:45.641Z,445.67
2019-03-01T17:51:21.074Z,447.03
2019-03-01T17:53:56.001Z,366.97
2019-03-01T17:56:31.123Z,362.63
2019-03-01T17:59:08.251Z,328.80
2019-03-01T18:01:41.083Z,340.33
2019-03-01T18:04:14.338Z,301.63
2019-03-01T18:06:48.713Z,299.77
2019-03-01T18:09:22.122Z,329.87
2019-03-01T18:11:56.758Z,329.20
2019-03-01T18:14:33.802Z,329.03
2019-03-01T18:17:06.468Z,316.27
2019-03-01T18:19:40.392Z,319.10
2019-03-01T18:22:14.849Z,316.30
2019-03-01T18:24:52.327Z,261.60
2019-03-01T18:27:29.813Z,199.80
2019-03-01T18:30:19.978Z,274.60
2019-03-01T18:33:10.366Z,281.40
2019-03-01T18:35:55.942Z,282.50
2019-03-01T18:38:34.654Z,232.50
2019-03-01T18:41:29.235Z,252.17
2019-03-01T18:44:06.504Z,254.43
2019-03-01T18:46:40.452Z,265.43
2019-03-01T18:49:16.712Z,257.77
2019-03-01T18:51:57.616Z,300.27
2019-03-01T18:54:25.991Z,292.83
2019-03-01T18:57:00.746Z,303.20
2019-03-01T18:59:37.980Z,301.80
2019-03-01T19:02:10.311Z,291.40
2019-03-01T19:04:44.169Z,252.33
2019-03-01T19:07:24.369Z,244.40
2019-03-01T19:10:10.696Z,231.83
2019-03-01T19:12:48.643Z,208.03
2019-03-01T19:15:22.643Z,198.27
2019-03-01T19:18:02.395Z,207.63
2019-03-01T19:20:41.553Z,189.13
2019-03-01T19:23:14.869Z,176.87
2019-03-01T19:25:48.245Z,187.50
2019-03-01T19:28:23.565Z,192.90
2019-03-01T19:31:00.928Z,194.00
2019-03-01T19:33:37.861Z,272.67
2019-03-01T19:36:13.646Z,231.03
2019-03-01T19:38:52.301Z,226.70
2019-03-01T19:41:25.487Z,164.47
2019-03-01T19:43:58.652Z,179.27
2019-03-01T19:46:37.096Z,165.97
2019-03-01T19:49:12.999Z,170.17
2019-03-01T19:51:48.891Z,155.47
2019-03-01T19:54:22.351Z,141.40
2019-03-01T19:57:01.565Z,145.70
2019-03-01T19:59:42.672Z,146.70
2019-03-01T20:02:18.669Z,111.77
2019-03-01T20:04:52.636Z,114.70
2019-03-01T20:07:27.450Z,113.30
2019-03-01T20:10:01.010Z,127.27
2019-03-01T20:12:40.491Z,127.53
2019-03-01T20:15:17.645Z,125.53
2019-03-01T20:17:56.829Z,129.23
2019-03-01T20:20:33.365Z,147.53
2019-03-01T20:23:10.744Z,180.80
2019-03-01T20:25:47.519Z,166.13
2019-03-01T20:28:27.198Z,159.43
2019-03-01T20:31:04.831Z,130.83
2019-03-01T20:33:39.458Z,129.23
2019-03-01T20:36:17.630Z,120.47
2019-03-01T20:38:57.114Z,132.93
2019-03-01T20:41:31.544Z,127.83
2019-03-01T20:44:10.890Z,129.03
2019-03-01T20:46:45.006Z,136.47
2019-03-01T20:49:22.172Z,122.10
2019-03-01T20:51:58.792Z,126.13
2019-03-01T20:54:32.870Z,141.67
2019-03-01T20:57:09.196Z,133.90
2019-03-01T20:59:50.569Z,151.70
2019-03-01T21:02:29.168Z,133.93
2019-03-01T21:05:05.217Z,127.70
2019-03-01T21:07:41.325Z,132.73
2019-03-01T21:10:22.624Z,138.83
2019-03-01T21:12:56.336Z,122.93
2019-03-01T21:15:34.667Z,130.87
2019-03-01T21:18:12.013Z,131.13
2019-03-01T21:20:50.557Z,147.20
2019-03-01T21:23:28.901Z,159.03
2019-03-01T21:26:04.874Z,160.17
2019-03-01T21:28:38.471Z,183.33
2019-03-01T21:31:16.502Z,190.40
2019-03-01T21:33:50.949Z,206.70
2019-03-01T21:36:37.350Z,212.43
2019-03-01T21:39:04.838Z,197.07
2019-03-01T21:41:41.539Z,225.87
2019-03-01T21:44:19.135Z,255.47
2019-03-01T21:46:55.647Z,459.00
2019-03-01T21:49:33.240Z,437.30
2019-03-01T21:52:11.096Z,385.33
2019-03-01T21:54:52.032Z,375.07
2019-03-01T21:57:27.515Z,395.73
2019-03-01T22:00:10.566Z,429.77
2019-03-01T22:02:48.908Z,470.10
2019-03-01T22:05:21.302Z,527.87
2019-03-01T22:08:09.598Z,479.30
2019-03-01T22:10:41.819Z,515.43
2019-03-01T22:13:15.687Z,523.03
2019-03-01T22:16:01.023Z,513.30
2019-03-01T22:18:33.305Z,497.23
2019-03-01T22:21:12.048Z,458.53
2019-03-01T22:23:51.442Z,443.87
2019-03-01T22:26:25.989Z,431.13
2019-03-01T22:29:01.900Z,411.07
2019-03-01T22:31:36.858Z,418.53
2019-03-01T22:34:11.071Z,415.37
2019-03-01T22:36:49.467Z,362.53
2019-03-01T22:39:24.315Z,306.03
2019-03-01T22:41:59.274Z,292.07
2019-03-01T22:44:36.537Z,273.70
2019-03-01T22:47:11.016Z,274.50
2019-03-01T22:49:45.760Z,266.40
2019-03-01T22:52:23.117Z,272.87
2019-03-01T22:55:01.904Z,278.00
2019-03-01T22:57:36.082Z,243.50
2019-03-01T23:00:57.966Z,200.17
2019-03-01T23:03:36.362Z,177.17
2019-03-01T23:06:14.688Z,162.07
2019-03-01T23:08:54.383Z,177.47
2019-03-01T23:11:32.411Z,168.87
2019-03-01T23:14:06.716Z,181.20
2019-03-01T23:16:40.144Z,145.90
2019-03-01T23:19:16.104Z,166.67
2019-03-01T23:21:47.975Z,146.53
2019-03-01T23:24:20.829Z,124.47
2019-03-01T23:26:56.773Z,130.23
2019-03-01T23:29:36.243Z,114.33
2019-03-01T23:32:15.436Z,109.80
2019-03-01T23:34:49.549Z,103.70
2019-03-01T23:37:22.583Z,94.97
2019-03-01T23:39:57.124Z,109.73
2019-03-01T23:42:30.220Z,98.30
2019-03-01T23:45:06.914Z,98.63
2019-03-01T23:47:39.848Z,86.43
2019-03-01T23:50:12.619Z,108.70
2019-03-01T23:52:45.425Z,124.93
2019-03-01T23:55:19.929Z,108.83
2019-03-01T23:57:52.882Z,111.67
